sensor_id;sensor_type;location;lat;lon;timestamp;P1;durP1;ratioP1;P2;durP2;ratioP2
44516;SDS011;30223;17.182;-96.766;2023-03-03T00:02:17;2.58;;;2.00;;
44516;SDS011;30223;17.182;-96.766;2023-03-03T00:04:43;4.18;;;2.70;;
44516;SDS011;30223;17.182;-96.766;2023-03-03T00:07:10;6.78;;;2.58;;
44516;SDS011;30223;17.182;-96.766;2023-03-03T00:09:37;3.78;;;2.42;;
44516;SDS011;30223;17.182;-96.766;2023-03-03T00:12:14;4.72;;;2.60;;
44516;SDS011;30223;17.182;-96.766;2023-03-03T00:14:53;7.90;;;3.20;;
44516;SDS011;30223;17.182;-96.766;2023-03-03T00:17:24;5.22;;;3.25;;
44516;SDS011;30223;17.182;-96.766;2023-03-03T00:19:56;8.30;;;4.85;;
44516;SDS011;30223;17.182;-96.766;2023-03-03T00:22:30;8.90;;;6.45;;
44516;SDS011;30223;17.182;-96.766;2023-03-03T00:27:53;8.73;;;7.82;;
44516;SDS011;30223;17.182;-96.766;2023-03-03T00:30:23;10.65;;;9.20;;
44516;SDS011;30223;17.182;-96.766;2023-03-03T00:32:54;9.88;;;8.88;;
44516;SDS011;30223;17.182;-96.766;2023-03-03T00:35:28;9.02;;;8.13;;
44516;SDS011;30223;17.182;-96.766;2023-03-03T00:38:16;13.52;;;9.00;;
44516;SDS011;30223;17.182;-96.766;2023-03-03T00:40:43;8.57;;;7.78;;
44516;SDS011;30223;17.182;-96.766;2023-03-03T00:43:17;9.02;;;7.95;;
44516;SDS011;30223;17.182;-96.766;2023-03-03T00:46:00;8.75;;;7.63;;
44516;SDS011;30223;17.182;-96.766;2023-03-03T00:48:28;7.88;;;7.07;;
44516;SDS011;30223;17.182;-96.766;2023-03-03T00:51:27;7.93;;;7.03;;
44516;SDS011;30223;17.182;-96.766;2023-03-03T00:53:56;6.72;;;5.93;;
44516;SDS011;30223;17.182;-96.766;2023-03-03T00:56:24;7.65;;;6.93;;
44516;SDS011;30223;17.182;-96.766;2023-03-03T00:58:51;7.28;;;6.55;;
44516;SDS011;30223;17.182;-96.766;2023-03-03T01:01:18;7.50;;;6.35;;
44516;SDS011;30223;17.182;-96.766;2023-03-03T01:03:45;6.70;;;5.82;;
44516;SDS011;30223;17.182;-96.766;2023-03-03T01:06:11;11.10;;;6.55;;
44516;SDS011;30223;17.182;-96.766;2023-03-03T01:08:39;8.15;;;6.72;;
44516;SDS011;30223;17.182;-96.766;2023-03-03T01:11:11;12.32;;;6.05;;
44516;SDS011;30223;17.182;-96.766;2023-03-03T01:13:41;16.67;;;7.68;;
44516;SDS011;30223;17.182;-96.766;2023-03-03T01:16:09;12.10;;;7.90;;
44516;SDS011;30223;17.182;-96.766;2023-03-03T01:18:35;13.45;;;8.50;;
44516;SDS011;30223;17.182;-96.766;2023-03-03T01:21:02;10.55;;;6.68;;
44516;SDS011;30223;17.182;-96.766;2023-03-03T01:23:29;15.50;;;7.82;;
44516;SDS011;30223;17.182;-96.766;2023-03-03T01:25:57;11.20;;;7.28;;
44516;SDS011;30223;17.182;-96.766;2023-03-03T01:28:23;11.55;;;7.15;;
44516;SDS011;30223;17.182;-96.766;2023-03-03T01:30:50;9.82;;;6.07;;
44516;SDS011;30223;17.182;-96.766;2023-03-03T01:33:17;10.25;;;5.35;;
44516;SDS011;30223;17.182;-96.766;2023-03-03T01:35:44;10.20;;;5.57;;
44516;SDS011;30223;17.182;-96.766;2023-03-03T01:38:12;11.37;;;6.03;;
44516;SDS011;30223;17.182;-96.766;2023-03-03T01:40:40;10.57;;;4.65;;
44516;SDS011;30223;17.182;-96.766;2023-03-03T01:43:07;9.10;;;3.78;;
44516;SDS011;30223;17.182;-96.766;2023-03-03T01:50:59;11.30;;;4.30;;
44516;SDS011;30223;17.182;-96.766;2023-03-03T01:53:45;5.10;;;3.38;;
44516;SDS011;30223;17.182;-96.766;2023-03-03T01:56:16;6.93;;;3.38;;
44516;SDS011;30223;17.182;-96.766;2023-03-03T01:58:46;7.13;;;3.17;;
44516;SDS011;30223;17.182;-96.766;2023-03-03T02:01:23;6.75;;;2.90;;
44516;SDS011;30223;17.182;-96.766;2023-03-03T02:03:52;4.13;;;2.42;;
44516;SDS011;30223;17.182;-96.766;2023-03-03T02:06:20;6.63;;;2.90;;
44516;SDS011;30223;17.182;-96.766;2023-03-03T02:09:01;4.72;;;2.80;;
44516;SDS011;30223;17.182;-96.766;2023-03-03T02:11:44;4.45;;;2.80;;
44516;SDS011;30223;17.182;-96.766;2023-03-03T02:14:14;4.80;;;3.22;;
44516;SDS011;30223;17.182;-96.766;2023-03-03T02:16:41;5.85;;;3.95;;
44516;SDS011;30223;17.182;-96.766;2023-03-03T02:19:11;4.78;;;3.63;;
44516;SDS011;30223;17.182;-96.766;2023-03-03T02:21:46;10.60;;;2.97;;
44516;SDS011;30223;17.182;-96.766;2023-03-03T02:24:17;4.80;;;3.03;;
44516;SDS011;30223;17.182;-96.766;2023-03-03T02:27:13;3.05;;;2.70;;
44516;SDS011;30223;17.182;-96.766;2023-03-03T02:29:39;4.22;;;3.38;;
44516;SDS011;30223;17.182;-96.766;2023-03-03T02:32:06;3.53;;;2.58;;
44516;SDS011;30223;17.182;-96.766;2023-03-03T02:34:45;3.67;;;2.67;;
44516;SDS011;30223;17.182;-96.766;2023-03-03T02:37:14;4.75;;;3.05;;
44516;SDS011;30223;17.182;-96.766;2023-03-03T02:39:41;4.28;;;2.67;;
44516;SDS011;30223;17.182;-96.766;2023-03-03T02:42:12;9.93;;;3.08;;
44516;SDS011;30223;17.182;-96.766;2023-03-03T02:44:52;3.28;;;2.97;;
44516;SDS011;30223;17.182;-96.766;2023-03-03T02:47:18;3.30;;;3.00;;
44516;SDS011;30223;17.182;-96.766;2023-03-03T02:49:45;5.65;;;2.70;;
44516;SDS011;30223;17.182;-96.766;2023-03-03T02:52:12;4.88;;;2.85;;
44516;SDS011;30223;17.182;-96.766;2023-03-03T02:54:42;4.28;;;2.67;;
44516;SDS011;30223;17.182;-96.766;2023-03-03T02:57:08;4.78;;;2.63;;
44516;SDS011;30223;17.182;-96.766;2023-03-03T02:59:35;3.47;;;2.33;;
44516;SDS011;30223;17.182;-96.766;2023-03-03T03:02:02;3.40;;;2.42;;
44516;SDS011;30223;17.182;-96.766;2023-03-03T03:04:28;4.10;;;2.20;;
44516;SDS011;30223;17.182;-96.766;2023-03-03T03:06:55;5.25;;;2.70;;
44516;SDS011;30223;17.182;-96.766;2023-03-03T03:09:23;5.38;;;2.88;;
44516;SDS011;30223;17.182;-96.766;2023-03-03T03:11:50;11.65;;;3.30;;
44516;SDS011;30223;17.182;-96.766;2023-03-03T03:14:17;4.20;;;2.47;;
44516;SDS011;30223;17.182;-96.766;2023-03-03T03:16:43;10.50;;;3.20;;
44516;SDS011;30223;17.182;-96.766;2023-03-03T03:19:10;8.00;;;2.90;;
44516;SDS011;30223;17.182;-96.766;2023-03-03T03:21:37;9.05;;;3.03;;
44516;SDS011;30223;17.182;-96.766;2023-03-03T03:24:04;9.98;;;2.95;;
44516;SDS011;30223;17.182;-96.766;2023-03-03T03:26:30;6.22;;;2.58;;
44516;SDS011;30223;17.182;-96.766;2023-03-03T03:28:57;6.63;;;2.55;;
44516;SDS011;30223;17.182;-96.766;2023-03-03T03:31:24;4.95;;;2.95;;
44516;SDS011;30223;17.182;-96.766;2023-03-03T03:33:50;5.75;;;3.22;;
44516;SDS011;30223;17.182;-96.766;2023-03-03T03:36:17;36.60;;;4.78;;
44516;SDS011;30223;17.182;-96.766;2023-03-03T03:38:44;7.57;;;2.90;;
44516;SDS011;30223;17.182;-96.766;2023-03-03T03:41:11;4.40;;;2.65;;
44516;SDS011;30223;17.182;-96.766;2023-03-03T03:43:38;5.47;;;3.22;;
44516;SDS011;30223;17.182;-96.766;2023-03-03T03:46:05;5.85;;;3.00;;
44516;SDS011;30223;17.182;-96.766;2023-03-03T03:48:33;10.13;;;4.50;;
44516;SDS011;30223;17.182;-96.766;2023-03-03T03:51:00;8.70;;;4.45;;
44516;SDS011;30223;17.182;-96.766;2023-03-03T03:53:28;7.15;;;3.17;;
44516;SDS011;30223;17.182;-96.766;2023-03-03T03:55:55;8.30;;;3.33;;
44516;SDS011;30223;17.182;-96.766;2023-03-03T03:58:23;6.95;;;3.15;;
44516;SDS011;30223;17.182;-96.766;2023-03-03T04:00:49;7.03;;;3.55;;
44516;SDS011;30223;17.182;-96.766;2023-03-03T04:03:16;7.68;;;4.72;;
44516;SDS011;30223;17.182;-96.766;2023-03-03T04:05:43;14.25;;;4.30;;
44516;SDS011;30223;17.182;-96.766;2023-03-03T04:08:10;5.55;;;3.10;;
44516;SDS011;30223;17.182;-96.766;2023-03-03T04:10:37;10.93;;;4.03;;
44516;SDS011;30223;17.182;-96.766;2023-03-03T04:13:04;13.98;;;3.50;;
44516;SDS011;30223;17.182;-96.766;2023-03-03T04:15:30;6.60;;;3.80;;
44516;SDS011;30223;17.182;-96.766;2023-03-03T04:17:57;9.20;;;3.20;;
44516;SDS011;30223;17.182;-96.766;2023-03-03T04:20:24;14.38;;;4.18;;
44516;SDS011;30223;17.182;-96.766;2023-03-03T04:22:50;8.27;;;3.42;;
44516;SDS011;30223;17.182;-96.766;2023-03-03T04:25:17;7.28;;;3.88;;
44516;SDS011;30223;17.182;-96.766;2023-03-03T04:27:44;12.85;;;3.17;;
44516;SDS011;30223;17.182;-96.766;2023-03-03T04:30:11;7.53;;;3.30;;
44516;SDS011;30223;17.182;-96.766;2023-03-03T04:32:39;6.47;;;2.80;;
44516;SDS011;30223;17.182;-96.766;2023-03-03T04:35:06;16.70;;;4.15;;
44516;SDS011;30223;17.182;-96.766;2023-03-03T04:37:34;13.30;;;3.42;;
44516;SDS011;30223;17.182;-96.766;2023-03-03T04:40:06;7.50;;;2.63;;
44516;SDS011;30223;17.182;-96.766;2023-03-03T04:42:34;13.70;;;3.70;;
44516;SDS011;30223;17.182;-96.766;2023-03-03T04:45:01;5.60;;;2.60;;
44516;SDS011;30223;17.182;-96.766;2023-03-03T04:47:28;9.30;;;3.60;;
44516;SDS011;30223;17.182;-96.766;2023-03-03T04:49:56;8.35;;;3.22;;
44516;SDS011;30223;17.182;-96.766;2023-03-03T04:52:23;6.05;;;3.33;;
44516;SDS011;30223;17.182;-96.766;2023-03-03T04:54:49;5.38;;;3.25;;
44516;SDS011;30223;17.182;-96.766;2023-03-03T04:57:16;4.18;;;2.75;;
44516;SDS011;30223;17.182;-96.766;2023-03-03T04:59:43;9.65;;;3.30;;
44516;SDS011;30223;17.182;-96.766;2023-03-03T05:02:09;5.20;;;2.92;;
44516;SDS011;30223;17.182;-96.766;2023-03-03T05:04:37;4.22;;;2.50;;
44516;SDS011;30223;17.182;-96.766;2023-03-03T05:07:04;4.32;;;2.90;;
44516;SDS011;30223;17.182;-96.766;2023-03-03T05:09:30;3.95;;;2.78;;
44516;SDS011;30223;17.182;-96.766;2023-03-03T05:11:57;5.40;;;2.63;;
44516;SDS011;30223;17.182;-96.766;2023-03-03T05:14:24;4.90;;;2.72;;
44516;SDS011;30223;17.182;-96.766;2023-03-03T05:16:52;8.27;;;2.72;;
44516;SDS011;30223;17.182;-96.766;2023-03-03T05:19:19;4.80;;;2.88;;
44516;SDS011;30223;17.182;-96.766;2023-03-03T05:21:45;10.40;;;3.58;;
44516;SDS011;30223;17.182;-96.766;2023-03-03T05:24:12;3.15;;;2.72;;
44516;SDS011;30223;17.182;-96.766;2023-03-03T05:26:39;8.70;;;2.60;;
44516;SDS011;30223;17.182;-96.766;2023-03-03T05:29:06;4.35;;;2.70;;
44516;SDS011;30223;17.182;-96.766;2023-03-03T05:31:34;3.95;;;2.65;;
44516;SDS011;30223;17.182;-96.766;2023-03-03T05:34:00;4.47;;;2.63;;
44516;SDS011;30223;17.182;-96.766;2023-03-03T05:36:27;9.73;;;3.00;;
44516;SDS011;30223;17.182;-96.766;2023-03-03T05:38:53;7.03;;;3.00;;
44516;SDS011;30223;17.182;-96.766;2023-03-03T05:41:20;5.35;;;2.45;;
44516;SDS011;30223;17.182;-96.766;2023-03-03T05:43:47;6.15;;;2.63;;
44516;SDS011;30223;17.182;-96.766;2023-03-03T05:46:14;5.05;;;2.97;;
44516;SDS011;30223;17.182;-96.766;2023-03-03T05:48:41;4.88;;;2.55;;
44516;SDS011;30223;17.182;-96.766;2023-03-03T05:51:08;3.55;;;2.80;;
44516;SDS011;30223;17.182;-96.766;2023-03-03T05:53:34;5.47;;;2.50;;
44516;SDS011;30223;17.182;-96.766;2023-03-03T05:56:01;4.78;;;2.60;;
44516;SDS011;30223;17.182;-96.766;2023-03-03T05:58:28;9.35;;;3.17;;
44516;SDS011;30223;17.182;-96.766;2023-03-03T06:00:55;6.40;;;2.45;;
44516;SDS011;30223;17.182;-96.766;2023-03-03T06:03:21;4.07;;;2.88;;
44516;SDS011;30223;17.182;-96.766;2023-03-03T06:05:48;4.00;;;2.50;;
44516;SDS011;30223;17.182;-96.766;2023-03-03T06:08:15;2.05;;;1.95;;
44516;SDS011;30223;17.182;-96.766;2023-03-03T06:10:41;5.10;;;3.10;;
44516;SDS011;30223;17.182;-96.766;2023-03-03T06:13:08;3.15;;;1.90;;
44516;SDS011;30223;17.182;-96.766;2023-03-03T06:15:35;2.63;;;2.42;;
44516;SDS011;30223;17.182;-96.766;2023-03-03T06:18:01;4.88;;;3.22;;
44516;SDS011;30223;17.182;-96.766;2023-03-03T06:20:28;3.20;;;2.50;;
44516;SDS011;30223;17.182;-96.766;2023-03-03T06:22:54;3.92;;;2.65;;
44516;SDS011;30223;17.182;-96.766;2023-03-03T06:25:21;3.20;;;2.42;;
44516;SDS011;30223;17.182;-96.766;2023-03-03T06:27:48;3.22;;;2.38;;
44516;SDS011;30223;17.182;-96.766;2023-03-03T06:30:14;3.67;;;2.08;;
44516;SDS011;30223;17.182;-96.766;2023-03-03T06:32:43;2.63;;;2.40;;
44516;SDS011;30223;17.182;-96.766;2023-03-03T06:35:10;2.78;;;2.08;;
44516;SDS011;30223;17.182;-96.766;2023-03-03T06:37:37;2.50;;;1.92;;
44516;SDS011;30223;17.182;-96.766;2023-03-03T06:40:04;3.15;;;2.30;;
44516;SDS011;30223;17.182;-96.766;2023-03-03T06:42:31;2.75;;;2.45;;
44516;SDS011;30223;17.182;-96.766;2023-03-03T06:44:58;4.93;;;2.53;;
44516;SDS011;30223;17.182;-96.766;2023-03-03T06:47:24;4.55;;;2.55;;
44516;SDS011;30223;17.182;-96.766;2023-03-03T06:49:51;3.28;;;2.22;;
44516;SDS011;30223;17.182;-96.766;2023-03-03T06:52:19;3.22;;;2.08;;
44516;SDS011;30223;17.182;-96.766;2023-03-03T06:54:52;4.28;;;3.05;;
44516;SDS011;30223;17.182;-96.766;2023-03-03T06:57:27;2.85;;;2.13;;
44516;SDS011;30223;17.182;-96.766;2023-03-03T06:59:56;3.88;;;2.28;;
44516;SDS011;30223;17.182;-96.766;2023-03-03T07:02:40;4.03;;;2.10;;
44516;SDS011;30223;17.182;-96.766;2023-03-03T07:05:12;4.85;;;2.50;;
44516;SDS011;30223;17.182;-96.766;2023-03-03T07:07:41;3.20;;;2.28;;
44516;SDS011;30223;17.182;-96.766;2023-03-03T07:10:17;3.97;;;2.22;;
44516;SDS011;30223;17.182;-96.766;2023-03-03T07:12:51;2.35;;;1.90;;
44516;SDS011;30223;17.182;-96.766;2023-03-03T07:15:24;3.97;;;1.98;;
44516;SDS011;30223;17.182;-96.766;2023-03-03T07:17:59;2.35;;;2.00;;
44516;SDS011;30223;17.182;-96.766;2023-03-03T07:20:36;5.15;;;2.17;;
44516;SDS011;30223;17.182;-96.766;2023-03-03T07:23:17;3.28;;;2.15;;
44516;SDS011;30223;17.182;-96.766;2023-03-03T07:25:48;1.55;;;1.45;;
44516;SDS011;30223;17.182;-96.766;2023-03-03T07:28:21;2.75;;;1.85;;
44516;SDS011;30223;17.182;-96.766;2023-03-03T07:30:53;3.97;;;2.20;;
44516;SDS011;30223;17.182;-96.766;2023-03-03T07:33:25;2.85;;;2.03;;
44516;SDS011;30223;17.182;-96.766;2023-03-03T07:35:55;2.40;;;1.67;;
44516;SDS011;30223;17.182;-96.766;2023-03-03T07:40:57;2.35;;;1.70;;
44516;SDS011;30223;17.182;-96.766;2023-03-03T07:43:29;5.47;;;2.67;;
44516;SDS011;30223;17.182;-96.766;2023-03-03T07:48:52;2.83;;;2.40;;
44516;SDS011;30223;17.182;-96.766;2023-03-03T07:51:23;2.73;;;1.60;;
44516;SDS011;30223;17.182;-96.766;2023-03-03T07:54:13;4.07;;;1.98;;
44516;SDS011;30223;17.182;-96.766;2023-03-03T07:56:42;3.25;;;1.67;;
44516;SDS011;30223;17.182;-96.766;2023-03-03T07:59:17;2.88;;;2.38;;
44516;SDS011;30223;17.182;-96.766;2023-03-03T08:01:50;1.98;;;1.65;;
44516;SDS011;30223;17.182;-96.766;2023-03-03T08:04:21;3.45;;;1.67;;
44516;SDS011;30223;17.182;-96.766;2023-03-03T08:12:29;2.55;;;2.00;;
44516;SDS011;30223;17.182;-96.766;2023-03-03T08:15:21;5.18;;;2.13;;
44516;SDS011;30223;17.182;-96.766;2023-03-03T08:17:55;2.15;;;1.63;;
44516;SDS011;30223;17.182;-96.766;2023-03-03T08:23:09;3.45;;;2.35;;
44516;SDS011;30223;17.182;-96.766;2023-03-03T08:25:36;2.92;;;1.90;;
44516;SDS011;30223;17.182;-96.766;2023-03-03T08:28:03;3.58;;;2.10;;
44516;SDS011;30223;17.182;-96.766;2023-03-03T08:30:30;3.85;;;2.13;;
44516;SDS011;30223;17.182;-96.766;2023-03-03T08:32:56;5.55;;;2.08;;
44516;SDS011;30223;17.182;-96.766;2023-03-03T08:35:23;3.03;;;2.05;;
44516;SDS011;30223;17.182;-96.766;2023-03-03T08:37:50;3.28;;;2.40;;
44516;SDS011;30223;17.182;-96.766;2023-03-03T08:40:17;2.30;;;1.90;;
44516;SDS011;30223;17.182;-96.766;2023-03-03T08:42:43;2.92;;;1.70;;
44516;SDS011;30223;17.182;-96.766;2023-03-03T08:45:10;2.80;;;1.70;;
44516;SDS011;30223;17.182;-96.766;2023-03-03T08:47:37;3.28;;;2.20;;
44516;SDS011;30223;17.182;-96.766;2023-03-03T08:50:04;2.20;;;1.75;;
44516;SDS011;30223;17.182;-96.766;2023-03-03T08:52:31;2.60;;;1.75;;
44516;SDS011;30223;17.182;-96.766;2023-03-03T08:54:58;2.55;;;2.05;;
44516;SDS011;30223;17.182;-96.766;2023-03-03T08:57:25;2.20;;;1.60;;
44516;SDS011;30223;17.182;-96.766;2023-03-03T08:59:51;3.08;;;1.65;;
44516;SDS011;30223;17.182;-96.766;2023-03-03T09:02:18;2.80;;;1.63;;
44516;SDS011;30223;17.182;-96.766;2023-03-03T09:04:45;2.65;;;1.92;;
44516;SDS011;30223;17.182;-96.766;2023-03-03T09:07:11;3.03;;;2.15;;
44516;SDS011;30223;17.182;-96.766;2023-03-03T09:09:38;2.85;;;1.70;;
44516;SDS011;30223;17.182;-96.766;2023-03-03T09:15:11;4.23;;;1.53;;
44516;SDS011;30223;17.182;-96.766;2023-03-03T09:17:46;3.38;;;1.30;;
44516;SDS011;30223;17.182;-96.766;2023-03-03T09:20:26;2.60;;;1.55;;
44516;SDS011;30223;17.182;-96.766;2023-03-03T09:22:53;2.40;;;1.67;;
44516;SDS011;30223;17.182;-96.766;2023-03-03T09:25:38;1.52;;;1.20;;
44516;SDS011;30223;17.182;-96.766;2023-03-03T09:28:04;2.30;;;1.75;;
44516;SDS011;30223;17.182;-96.766;2023-03-03T09:30:46;3.15;;;1.77;;
44516;SDS011;30223;17.182;-96.766;2023-03-03T09:33:19;3.78;;;2.10;;
44516;SDS011;30223;17.182;-96.766;2023-03-03T09:36:11;2.25;;;1.80;;
44516;SDS011;30223;17.182;-96.766;2023-03-03T09:39:00;2.53;;;1.75;;
44516;SDS011;30223;17.182;-96.766;2023-03-03T09:41:42;2.55;;;1.75;;
44516;SDS011;30223;17.182;-96.766;2023-03-03T09:44:35;2.65;;;1.63;;
44516;SDS011;30223;17.182;-96.766;2023-03-03T09:47:45;2.38;;;1.38;;
44516;SDS011;30223;17.182;-96.766;2023-03-03T09:50:28;1.75;;;1.52;;
44516;SDS011;30223;17.182;-96.766;2023-03-03T09:55:37;3.58;;;1.77;;
44516;SDS011;30223;17.182;-96.766;2023-03-03T09:58:22;2.50;;;1.77;;
44516;SDS011;30223;17.182;-96.766;2023-03-03T10:01:14;2.58;;;1.83;;
44516;SDS011;30223;17.182;-96.766;2023-03-03T10:10:15;1.75;;;1.48;;
44516;SDS011;30223;17.182;-96.766;2023-03-03T10:18:33;3.40;;;2.03;;
44516;SDS011;30223;17.182;-96.766;2023-03-03T10:21:10;2.38;;;1.67;;
44516;SDS011;30223;17.182;-96.766;2023-03-03T10:24:08;2.80;;;1.92;;
44516;SDS011;30223;17.182;-96.766;2023-03-03T10:32:55;3.67;;;2.03;;
44516;SDS011;30223;17.182;-96.766;2023-03-03T10:50:09;2.23;;;1.20;;
44516;SDS011;30223;17.182;-96.766;2023-03-03T11:01:43;2.97;;;1.42;;
44516;SDS011;30223;17.182;-96.766;2023-03-03T11:07:26;2.28;;;1.70;;
44516;SDS011;30223;17.182;-96.766;2023-03-03T11:09:54;2.10;;;1.55;;
44516;SDS011;30223;17.182;-96.766;2023-03-03T11:18:06;2.65;;;1.70;;
44516;SDS011;30223;17.182;-96.766;2023-03-03T11:23:54;1.48;;;1.30;;
44516;SDS011;30223;17.182;-96.766;2023-03-03T11:32:15;3.90;;;2.17;;
44516;SDS011;30223;17.182;-96.766;2023-03-03T11:40:36;4.13;;;2.25;;
44516;SDS011;30223;17.182;-96.766;2023-03-03T11:43:26;2.20;;;1.30;;
44516;SDS011;30223;17.182;-96.766;2023-03-03T11:52:20;2.80;;;1.80;;
44516;SDS011;30223;17.182;-96.766;2023-03-03T11:55:06;1.67;;;1.13;;
44516;SDS011;30223;17.182;-96.766;2023-03-03T11:57:45;3.75;;;1.50;;
44516;SDS011;30223;17.182;-96.766;2023-03-03T12:00:27;2.22;;;1.67;;
44516;SDS011;30223;17.182;-96.766;2023-03-03T12:22:34;4.55;;;2.13;;
44516;SDS011;30223;17.182;-96.766;2023-03-03T12:25:18;1.83;;;1.58;;
44516;SDS011;30223;17.182;-96.766;2023-03-03T12:27:58;2.53;;;1.83;;
44516;SDS011;30223;17.182;-96.766;2023-03-03T12:30:36;2.17;;;1.65;;
44516;SDS011;30223;17.182;-96.766;2023-03-03T12:41:48;1.95;;;1.63;;
44516;SDS011;30223;17.182;-96.766;2023-03-03T12:44:25;2.90;;;1.48;;
44516;SDS011;30223;17.182;-96.766;2023-03-03T12:47:00;1.52;;;1.42;;
44516;SDS011;30223;17.182;-96.766;2023-03-03T12:55:55;4.53;;;2.20;;
44516;SDS011;30223;17.182;-96.766;2023-03-03T13:01:08;2.20;;;1.60;;
44516;SDS011;30223;17.182;-96.766;2023-03-03T13:06:45;1.63;;;1.52;;
44516;SDS011;30223;17.182;-96.766;2023-03-03T13:09:41;2.35;;;1.92;;
44516;SDS011;30223;17.182;-96.766;2023-03-03T13:15:22;2.55;;;1.90;;
44516;SDS011;30223;17.182;-96.766;2023-03-03T13:21:00;4.05;;;1.50;;
44516;SDS011;30223;17.182;-96.766;2023-03-03T13:31:28;4.70;;;1.33;;
44516;SDS011;30223;17.182;-96.766;2023-03-03T13:34:12;2.15;;;1.98;;
44516;SDS011;30223;17.182;-96.766;2023-03-03T13:39:42;2.90;;;1.35;;
44516;SDS011;30223;17.182;-96.766;2023-03-03T13:53:37;2.10;;;1.85;;
44516;SDS011;30223;17.182;-96.766;2023-03-03T13:59:21;3.15;;;1.92;;
44516;SDS011;30223;17.182;-96.766;2023-03-03T14:01:55;3.38;;;2.25;;
44516;SDS011;30223;17.182;-96.766;2023-03-03T14:07:27;2.67;;;2.15;;
44516;SDS011;30223;17.182;-96.766;2023-03-03T14:12:59;8.80;;;2.35;;
44516;SDS011;30223;17.182;-96.766;2023-03-03T14:15:43;1.80;;;1.63;;
44516;SDS011;30223;17.182;-96.766;2023-03-03T14:21:54;2.55;;;1.95;;
44516;SDS011;30223;17.182;-96.766;2023-03-03T14:24:19;3.58;;;1.92;;
44516;SDS011;30223;17.182;-96.766;2023-03-03T14:26:48;4.55;;;2.35;;
44516;SDS011;30223;17.182;-96.766;2023-03-03T14:29:21;3.28;;;2.30;;
44516;SDS011;30223;17.182;-96.766;2023-03-03T14:31:55;5.32;;;1.83;;
44516;SDS011;30223;17.182;-96.766;2023-03-03T14:42:56;2.38;;;1.95;;
44516;SDS011;30223;17.182;-96.766;2023-03-03T14:45:29;4.93;;;3.00;;
44516;SDS011;30223;17.182;-96.766;2023-03-03T14:50:53;3.67;;;2.40;;
44516;SDS011;30223;17.182;-96.766;2023-03-03T14:53:43;4.97;;;2.55;;
44516;SDS011;30223;17.182;-96.766;2023-03-03T14:58:51;2.88;;;2.03;;
44516;SDS011;30223;17.182;-96.766;2023-03-03T15:01:38;2.53;;;1.60;;
44516;SDS011;30223;17.182;-96.766;2023-03-03T15:12:16;2.92;;;2.42;;
44516;SDS011;30223;17.182;-96.766;2023-03-03T15:17:34;4.05;;;2.58;;
44516;SDS011;30223;17.182;-96.766;2023-03-03T15:27:35;4.60;;;1.80;;
44516;SDS011;30223;17.182;-96.766;2023-03-03T15:32:42;2.80;;;2.25;;
44516;SDS011;30223;17.182;-96.766;2023-03-03T15:40:48;3.47;;;1.73;;
44516;SDS011;30223;17.182;-96.766;2023-03-03T15:46:04;4.63;;;2.38;;
44516;SDS011;30223;17.182;-96.766;2023-03-03T15:48:59;6.32;;;2.20;;
44516;SDS011;30223;17.182;-96.766;2023-03-03T15:54:52;2.42;;;2.22;;
44516;SDS011;30223;17.182;-96.766;2023-03-03T16:06:04;4.15;;;2.15;;
44516;SDS011;30223;17.182;-96.766;2023-03-03T16:11:11;2.67;;;1.88;;
44516;SDS011;30223;17.182;-96.766;2023-03-03T16:13:53;3.72;;;1.88;;
44516;SDS011;30223;17.182;-96.766;2023-03-03T16:25:06;2.85;;;2.20;;
44516;SDS011;30223;17.182;-96.766;2023-03-03T16:28:05;3.13;;;1.80;;
44516;SDS011;30223;17.182;-96.766;2023-03-03T16:38:49;2.40;;;2.20;;
44516;SDS011;30223;17.182;-96.766;2023-03-03T16:41:46;3.42;;;2.05;;
44516;SDS011;30223;17.182;-96.766;2023-03-03T16:46:46;2.35;;;2.08;;
44516;SDS011;30223;17.182;-96.766;2023-03-03T16:49:27;1.90;;;1.58;;
44516;SDS011;30223;17.182;-96.766;2023-03-03T16:52:08;3.17;;;2.22;;
44516;SDS011;30223;17.182;-96.766;2023-03-03T16:54:55;2.25;;;1.73;;
44516;SDS011;30223;17.182;-96.766;2023-03-03T17:00:23;2.28;;;2.00;;
44516;SDS011;30223;17.182;-96.766;2023-03-03T17:05:43;2.05;;;1.50;;
44516;SDS011;30223;17.182;-96.766;2023-03-03T17:08:26;2.78;;;1.63;;
44516;SDS011;30223;17.182;-96.766;2023-03-03T17:17:06;2.80;;;2.00;;
44516;SDS011;30223;17.182;-96.766;2023-03-03T17:20:10;3.33;;;1.90;;
44516;SDS011;30223;17.182;-96.766;2023-03-03T17:28:43;2.17;;;1.52;;
44516;SDS011;30223;17.182;-96.766;2023-03-03T17:34:13;2.40;;;1.60;;
44516;SDS011;30223;17.182;-96.766;2023-03-03T17:37:18;2.40;;;2.20;;
44516;SDS011;30223;17.182;-96.766;2023-03-03T17:39:57;2.17;;;1.40;;
44516;SDS011;30223;17.182;-96.766;2023-03-03T17:45:29;2.53;;;1.88;;
44516;SDS011;30223;17.182;-96.766;2023-03-03T17:55:58;2.78;;;1.50;;
44516;SDS011;30223;17.182;-96.766;2023-03-03T18:02:05;2.38;;;2.17;;
44516;SDS011;30223;17.182;-96.766;2023-03-03T18:10:49;2.15;;;1.58;;
44516;SDS011;30223;17.182;-96.766;2023-03-03T18:16:06;2.30;;;1.70;;
44516;SDS011;30223;17.182;-96.766;2023-03-03T18:27:42;1.88;;;1.67;;
44516;SDS011;30223;17.182;-96.766;2023-03-03T18:38:42;3.08;;;2.78;;
44516;SDS011;30223;17.182;-96.766;2023-03-03T18:40:58;2.35;;;1.60;;
44516;SDS011;30223;17.182;-96.766;2023-03-03T18:54:00;5.18;;;2.13;;
44516;SDS011;30223;17.182;-96.766;2023-03-03T18:56:42;2.67;;;2.03;;
44516;SDS011;30223;17.182;-96.766;2023-03-03T19:07:41;5.72;;;2.97;;
44516;SDS011;30223;17.182;-96.766;2023-03-03T19:12:55;4.70;;;3.20;;
44516;SDS011;30223;17.182;-96.766;2023-03-03T19:17:57;6.70;;;2.72;;
44516;SDS011;30223;17.182;-96.766;2023-03-03T19:20:38;5.28;;;3.33;;
44516;SDS011;30223;17.182;-96.766;2023-03-03T19:23:10;6.72;;;4.05;;
44516;SDS011;30223;17.182;-96.766;2023-03-03T19:26:04;4.60;;;3.40;;
44516;SDS011;30223;17.182;-96.766;2023-03-03T19:34:06;5.28;;;4.18;;
44516;SDS011;30223;17.182;-96.766;2023-03-03T19:42:25;8.88;;;4.13;;
44516;SDS011;30223;17.182;-96.766;2023-03-03T19:56:59;6.00;;;4.95;;
44516;SDS011;30223;17.182;-96.766;2023-03-03T19:59:36;8.50;;;5.90;;
44516;SDS011;30223;17.182;-96.766;2023-03-03T20:05:15;6.43;;;5.03;;
44516;SDS011;30223;17.182;-96.766;2023-03-03T20:13:05;10.63;;;5.68;;
44516;SDS011;30223;17.182;-96.766;2023-03-03T20:16:09;7.80;;;5.10;;
44516;SDS011;30223;17.182;-96.766;2023-03-03T20:21:30;10.45;;;4.38;;
44516;SDS011;30223;17.182;-96.766;2023-03-03T20:24:21;8.00;;;5.55;;
44516;SDS011;30223;17.182;-96.766;2023-03-03T20:27:21;5.85;;;4.57;;
44516;SDS011;30223;17.182;-96.766;2023-03-03T20:30:05;5.78;;;4.35;;
44516;SDS011;30223;17.182;-96.766;2023-03-03T20:35:17;7.72;;;5.25;;
44516;SDS011;30223;17.182;-96.766;2023-03-03T20:38:02;6.82;;;5.25;;
44516;SDS011;30223;17.182;-96.766;2023-03-03T20:41:38;9.20;;;4.78;;
44516;SDS011;30223;17.182;-96.766;2023-03-03T20:53:02;6.90;;;4.53;;
44516;SDS011;30223;17.182;-96.766;2023-03-03T21:01:23;4.72;;;3.95;;
44516;SDS011;30223;17.182;-96.766;2023-03-03T21:06:43;5.70;;;4.70;;
44516;SDS011;30223;17.182;-96.766;2023-03-03T21:09:23;7.50;;;4.22;;
44516;SDS011;30223;17.182;-96.766;2023-03-03T21:11:54;6.82;;;4.38;;
44516;SDS011;30223;17.182;-96.766;2023-03-03T21:14:26;13.38;;;4.72;;
44516;SDS011;30223;17.182;-96.766;2023-03-03T21:16:59;7.10;;;5.05;;
44516;SDS011;30223;17.182;-96.766;2023-03-03T21:19:36;7.43;;;4.38;;
44516;SDS011;30223;17.182;-96.766;2023-03-03T21:22:02;6.63;;;4.32;;
44516;SDS011;30223;17.182;-96.766;2023-03-03T21:27:32;7.28;;;4.50;;
44516;SDS011;30223;17.182;-96.766;2023-03-03T21:30:06;5.07;;;4.35;;
44516;SDS011;30223;17.182;-96.766;2023-03-03T21:32:43;6.05;;;4.18;;
44516;SDS011;30223;17.182;-96.766;2023-03-03T21:35:16;4.78;;;3.92;;